createdAt,value
2022-08-17T00:01:57.533Z,24.93
2022-08-17T00:04:09.289Z,24.68
2022-08-17T00:06:18.378Z,24.83
2022-08-17T00:08:26.753Z,24.91
2022-08-17T00:10:30.268Z,24.91
2022-08-17T00:12:44.627Z,24.59
2022-08-17T00:14:50.367Z,24.85
2022-08-17T00:16:56.863Z,24.85
2022-08-17T00:19:08.423Z,24.88
2022-08-17T00:21:13.023Z,24.65
2022-08-17T00:23:18.195Z,24.92
2022-08-17T00:25:22.998Z,24.83
2022-08-17T00:27:26.419Z,24.81
2022-08-17T00:29:29.842Z,24.76
2022-08-17T00:31:34.217Z,24.55
2022-08-17T00:33:40.257Z,24.48
2022-08-17T00:35:44.973Z,24.38
2022-08-17T00:37:48.455Z,24.50
2022-08-17T00:39:52.389Z,24.53
2022-08-17T00:41:57.353Z,24.55
2022-08-17T00:44:04.468Z,24.70
2022-08-17T00:46:12.180Z,24.77
2022-08-17T00:48:29.501Z,24.85
2022-08-17T00:50:35.660Z,24.89
2022-08-17T00:52:44.808Z,24.90
2022-08-17T00:54:52.739Z,24.93
2022-08-17T00:57:01.801Z,24.90
2022-08-17T00:59:08.518Z,24.84
2022-08-17T01:01:13.412Z,24.74
2022-08-17T01:03:27.043Z,24.68
2022-08-17T01:05:32.899Z,24.69
2022-08-17T01:07:37.939Z,24.62
2022-08-17T01:09:42.999Z,24.49
2022-08-17T01:11:52.236Z,24.30
2022-08-17T01:13:57.158Z,24.32
2022-08-17T01:16:05.984Z,24.21
2022-08-17T01:18:12.642Z,24.29
2022-08-17T01:20:16.848Z,24.24
2022-08-17T01:22:24.018Z,24.25
2022-08-17T01:24:27.957Z,24.36
2022-08-17T01:26:34.104Z,24.39
2022-08-17T01:28:54.309Z,24.38
2022-08-17T01:31:02.060Z,24.39
2022-08-17T01:33:05.736Z,24.47
2022-08-17T01:35:09.647Z,24.48
2022-08-17T01:37:15.148Z,24.49
2022-08-17T01:39:24.478Z,24.46
2022-08-17T01:41:28.709Z,24.46
2022-08-17T01:43:39.014Z,24.48
2022-08-17T01:45:46.083Z,24.45
2022-08-17T01:47:50.573Z,24.54
2022-08-17T01:49:54.883Z,24.55
2022-08-17T01:51:58.507Z,24.60
2022-08-17T01:54:06.280Z,24.64
2022-08-17T01:56:15.270Z,24.52
2022-08-17T01:58:19.413Z,24.58
2022-08-17T02:00:23.158Z,24.54
2022-08-17T02:02:30.840Z,24.39
2022-08-17T02:04:35.189Z,24.28
2022-08-17T02:06:52.511Z,24.31
2022-08-17T02:09:02.672Z,24.43
2022-08-17T02:11:11.271Z,24.32
2022-08-17T02:13:17.403Z,24.29
2022-08-17T02:15:21.602Z,24.31
2022-08-17T02:17:25.114Z,24.20
2022-08-17T02:19:28.603Z,24.11
2022-08-17T02:21:32.482Z,23.97
2022-08-17T02:23:41.897Z,23.99
2022-08-17T02:25:48.671Z,24.03
2022-08-17T02:27:52.941Z,23.99
2022-08-17T02:29:57.768Z,23.98
2022-08-17T02:32:01.859Z,24.05
2022-08-17T02:34:06.233Z,24.18
2022-08-17T02:36:10.186Z,24.23
2022-08-17T02:38:13.705Z,24.24
2022-08-17T02:40:17.691Z,24.26
2022-08-17T02:42:42.851Z,24.37
2022-08-17T02:44:46.279Z,24.34
2022-08-17T02:46:51.092Z,24.34
2022-08-17T02:48:54.884Z,24.11
2022-08-17T02:50:58.329Z,24.09
2022-08-17T02:53:04.559Z,24.04
2022-08-17T02:55:13.760Z,24.00
2022-08-17T02:57:17.480Z,23.99
2022-08-17T02:59:20.889Z,23.99
2022-08-17T03:01:24.456Z,23.86
2022-08-17T03:03:29.297Z,23.75
2022-08-17T03:05:34.891Z,23.69
2022-08-17T03:07:39.106Z,23.72
2022-08-17T03:09:42.882Z,23.70
2022-08-17T03:11:46.374Z,23.70
2022-08-17T03:13:50.171Z,23.70
2022-08-17T03:15:53.730Z,23.77
2022-08-17T03:17:57.787Z,23.79
2022-08-17T03:20:02.887Z,23.82
2022-08-17T03:22:37.034Z,23.81
2022-08-17T03:24:29.873Z,23.75
2022-08-17T03:26:33.344Z,23.71
2022-08-17T03:28:36.887Z,23.74
2022-08-17T03:30:41.081Z,23.63
2022-08-17T03:32:48.229Z,23.63
2022-08-17T03:34:51.650Z,23.61
2022-08-17T03:36:56.362Z,23.37
2022-08-17T03:38:59.712Z,23.09
2022-08-17T03:41:03.313Z,22.97
2022-08-17T03:43:09.015Z,22.86
2022-08-17T03:45:16.006Z,22.88
2022-08-17T03:47:38.151Z,22.97
2022-08-17T03:50:02.825Z,23.04
2022-08-17T03:52:39.553Z,23.11
2022-08-17T03:55:01.666Z,23.08
2022-08-17T03:57:07.503Z,22.89
2022-08-17T03:59:20.878Z,22.80
2022-08-17T04:01:26.962Z,22.31
2022-08-17T04:03:30.919Z,22.46
2022-08-17T04:05:34.473Z,22.51
2022-08-17T04:07:39.409Z,22.40
2022-08-17T04:09:43.576Z,22.32
2022-08-17T04:11:47.047Z,22.21
2022-08-17T04:13:50.529Z,22.42
2022-08-17T04:15:59.204Z,22.38
2022-08-17T04:18:02.622Z,22.51
2022-08-17T04:20:07.063Z,22.35
2022-08-17T04:22:10.491Z,22.30
2022-08-17T04:24:36.008Z,22.29
2022-08-17T04:26:53.422Z,22.37
2022-08-17T04:28:58.849Z,22.51
2022-08-17T04:31:02.283Z,22.70
2022-08-17T04:33:08.668Z,22.84
2022-08-17T04:35:12.150Z,22.92
2022-08-17T04:37:15.654Z,22.86
2022-08-17T04:39:19.112Z,22.83
2022-08-17T04:41:41.548Z,22.84
2022-08-17T04:43:49.777Z,22.82
2022-08-17T04:45:57.008Z,22.84
2022-08-17T04:48:01.600Z,22.91
2022-08-17T04:50:05.519Z,22.72
2022-08-17T04:52:08.941Z,22.64
2022-08-17T04:54:32.345Z,22.47
2022-08-17T04:56:37.878Z,22.54
2022-08-17T04:58:41.262Z,22.52
2022-08-17T05:00:44.905Z,22.56
2022-08-17T05:02:50.645Z,22.53
2022-08-17T05:04:54.408Z,22.46
2022-08-17T05:06:58.730Z,22.43
2022-08-17T05:09:02.221Z,22.43
2022-08-17T05:11:06.122Z,22.50
2022-08-17T05:13:15.432Z,22.66
2022-08-17T05:15:18.846Z,22.74
2022-08-17T05:17:22.882Z,22.68
2022-08-17T05:19:26.279Z,22.59
2022-08-17T05:21:30.446Z,22.50
2022-08-17T05:23:42.626Z,22.51
2022-08-17T05:25:48.500Z,22.52
2022-08-17T05:27:54.868Z,22.62
2022-08-17T05:29:59.765Z,22.90
2022-08-17T05:32:38.145Z,23.00
2022-08-17T05:34:32.967Z,23.01
2022-08-17T05:36:42.903Z,22.89
2022-08-17T05:38:47.806Z,22.91
2022-08-17T05:40:51.643Z,23.13
2022-08-17T05:43:05.876Z,23.43
2022-08-17T05:45:12.191Z,23.68
2022-08-17T05:47:15.713Z,23.56
2022-08-17T05:49:27.128Z,23.26
2022-08-17T05:51:46.540Z,23.24
2022-08-17T05:53:57.869Z,23.14
2022-08-17T05:56:11.612Z,23.12
2022-08-17T05:58:42.015Z,23.18
2022-08-17T06:00:59.952Z,23.46
2022-08-17T06:03:26.450Z,23.67
2022-08-17T06:05:58.233Z,23.86
2022-08-17T06:08:13.483Z,23.85
2022-08-17T06:10:26.933Z,23.64
2022-08-17T06:12:40.546Z,23.39
2022-08-17T06:14:58.838Z,23.24
2022-08-17T06:17:07.227Z,23.23
2022-08-17T06:19:15.976Z,23.12
2022-08-17T06:21:23.537Z,22.99
2022-08-17T06:23:37.426Z,23.06
2022-08-17T06:25:46.641Z,23.05
2022-08-17T06:27:54.412Z,22.94
2022-08-17T06:30:01.807Z,22.83
2022-08-17T06:32:10.501Z,23.06
2022-08-17T06:34:16.384Z,23.06
2022-08-17T06:36:33.677Z,23.19
2022-08-17T06:38:49.934Z,23.10
2022-08-17T06:41:06.038Z,23.20
2022-08-17T06:43:22.311Z,23.34
2022-08-17T06:45:31.962Z,23.45
2022-08-17T06:47:44.645Z,23.55
2022-08-17T06:49:55.567Z,23.67
2022-08-17T06:52:08.514Z,23.64
2022-08-17T06:54:20.212Z,23.67
2022-08-17T06:56:53.884Z,23.73
2022-08-17T06:58:59.722Z,23.70
2022-08-17T07:01:09.560Z,23.83
2022-08-17T07:03:21.323Z,23.89
2022-08-17T07:05:31.706Z,24.00
2022-08-17T07:07:56.532Z,24.02
2022-08-17T07:10:01.964Z,23.91
2022-08-17T07:12:16.095Z,23.98
2022-08-17T07:14:37.051Z,24.12
2022-08-17T07:16:46.670Z,24.22
2022-08-17T07:18:54.936Z,24.32
2022-08-17T07:21:08.778Z,24.32
2022-08-17T07:23:21.892Z,24.31
2022-08-17T07:25:25.328Z,24.32
2022-08-17T07:27:31.187Z,24.42
2022-08-17T07:29:43.932Z,24.43
2022-08-17T07:31:47.456Z,24.52
2022-08-17T07:34:06.688Z,24.55
2022-08-17T07:36:29.871Z,24.55
2022-08-17T07:38:35.759Z,24.58
2022-08-17T07:40:41.183Z,24.63
2022-08-17T07:43:01.085Z,24.62
2022-08-17T07:45:30.069Z,24.63
2022-08-17T07:47:51.097Z,24.66
2022-08-17T07:49:56.157Z,24.67
2022-08-17T07:52:24.286Z,24.65
2022-08-17T07:54:33.380Z,24.72
2022-08-17T07:56:43.503Z,24.61
2022-08-17T07:58:48.925Z,24.64
2022-08-17T08:01:08.084Z,24.68
2022-08-17T08:03:26.230Z,24.55
2022-08-17T08:05:49.904Z,24.63
2022-08-17T08:07:56.879Z,24.60
2022-08-17T08:10:10.195Z,24.56
2022-08-17T08:12:25.662Z,24.69
2022-08-17T08:14:39.386Z,24.68
2022-08-17T08:16:59.015Z,24.68
2022-08-17T08:19:03.341Z,24.62
2022-08-17T08:21:14.105Z,24.58
2022-08-17T08:23:26.531Z,24.58
2022-08-17T08:25:41.506Z,24.61
2022-08-17T08:27:54.776Z,24.51
2022-08-17T08:30:06.907Z,24.58
2022-08-17T08:32:20.960Z,24.53
2022-08-17T08:34:58.842Z,24.45
2022-08-17T08:37:17.708Z,24.38
2022-08-17T08:39:32.078Z,24.37
2022-08-17T08:41:45.450Z,24.33
2022-08-17T08:44:00.773Z,24.36
2022-08-17T08:46:13.770Z,24.32
2022-08-17T08:48:58.179Z,24.43
2022-08-17T08:51:06.493Z,24.41
2022-08-17T08:53:26.576Z,24.44
2022-08-17T08:55:41.827Z,24.43
2022-08-17T08:57:51.010Z,24.40
2022-08-17T09:00:07.521Z,24.40
2022-08-17T09:02:25.073Z,24.34
2022-08-17T09:05:13.459Z,24.30
2022-08-17T09:07:28.669Z,24.29
2022-08-17T09:09:45.338Z,24.24
2022-08-17T09:12:02.603Z,24.26
2022-08-17T09:14:21.655Z,24.31
2022-08-17T09:16:30.590Z,24.30
2022-08-17T09:18:59.068Z,24.40
2022-08-17T09:21:04.791Z,24.38
2022-08-17T09:23:14.602Z,24.25
2022-08-17T09:25:26.266Z,24.09
2022-08-17T09:27:34.145Z,24.13
2022-08-17T09:29:43.933Z,24.13
2022-08-17T09:31:55.094Z,24.07
2022-08-17T09:34:01.075Z,24.11
2022-08-17T09:36:10.024Z,24.09
2022-08-17T09:38:24.214Z,24.03
2022-08-17T09:40:34.458Z,24.06
2022-08-17T09:42:46.176Z,24.07
2022-08-17T09:44:58.941Z,24.14
2022-08-17T09:47:09.972Z,24.05
2022-08-17T09:49:25.187Z,24.03
2022-08-17T09:51:34.293Z,23.90
2022-08-17T09:53:39.408Z,23.88
2022-08-17T09:56:04.145Z,23.88
2022-08-17T09:58:20.048Z,23.69
2022-08-17T10:00:31.857Z,23.69
2022-08-17T10:02:51.584Z,23.67
2022-08-17T10:05:02.315Z,23.61
2022-08-17T10:07:13.320Z,23.50
2022-08-17T10:09:26.311Z,23.47
2022-08-17T10:11:54.122Z,23.45
2022-08-17T10:14:24.083Z,23.59
2022-08-17T10:16:41.195Z,23.45
2022-08-17T10:18:50.627Z,23.49
2022-08-17T10:21:16.580Z,23.65
2022-08-17T10:23:46.002Z,23.69
2022-08-17T10:26:13.098Z,23.74
2022-08-17T10:28:28.925Z,23.71
2022-08-17T10:30:37.906Z,23.65
2022-08-17T10:32:49.625Z,23.67
2022-08-17T10:35:17.091Z,23.60
2022-08-17T10:37:44.126Z,23.67
2022-08-17T10:39:54.088Z,23.67
2022-08-17T10:42:01.657Z,23.77
2022-08-17T10:44:39.217Z,23.78
2022-08-17T10:46:54.252Z,23.80
2022-08-17T10:49:39.679Z,23.81
2022-08-17T10:51:43.617Z,23.88
2022-08-17T10:54:00.421Z,24.02
2022-08-17T10:56:21.742Z,23.99
2022-08-17T10:58:28.582Z,24.02
2022-08-17T11:00:59.660Z,24.12
2022-08-17T11:03:16.024Z,24.29
2022-08-17T11:05:50.281Z,24.41
2022-08-17T11:08:07.956Z,24.63
2022-08-17T11:10:34.347Z,24.76
2022-08-17T11:12:51.474Z,24.74
2022-08-17T11:15:04.829Z,24.62
2022-08-17T11:17:21.197Z,24.52
2022-08-17T11:20:30.680Z,24.44
2022-08-17T11:23:07.426Z,24.54
2022-08-17T11:25:16.053Z,24.93
2022-08-17T11:27:27.183Z,25.18
2022-08-17T11:29:36.686Z,24.99
2022-08-17T11:31:44.993Z,25.08
2022-08-17T11:34:04.487Z,25.07
2022-08-17T11:36:18.040Z,24.92
2022-08-17T11:38:31.239Z,24.84
2022-08-17T11:40:47.332Z,24.88
2022-08-17T11:43:04.776Z,25.40
2022-08-17T11:45:31.764Z,25.63
2022-08-17T11:48:27.623Z,25.82
2022-08-17T11:51:06.239Z,25.88
2022-08-17T11:53:48.226Z,25.79
2022-08-17T11:56:08.051Z,25.63
2022-08-17T11:58:40.039Z,25.41
2022-08-17T12:00:57.489Z,25.63
2022-08-17T12:03:24.777Z,25.58
2022-08-17T12:05:35.053Z,25.68
2022-08-17T12:07:43.311Z,25.63
2022-08-17T12:09:50.600Z,25.79
2022-08-17T12:12:12.862Z,26.17
2022-08-17T12:14:40.118Z,26.50
2022-08-17T12:17:00.174Z,26.96
2022-08-17T12:19:06.036Z,26.89
2022-08-17T12:21:23.586Z,27.19
2022-08-17T12:23:36.905Z,27.60
2022-08-17T12:25:46.389Z,27.79
2022-08-17T12:28:05.571Z,27.95
2022-08-17T12:30:14.459Z,28.07
2022-08-17T12:32:21.092Z,28.06
2022-08-17T12:34:27.577Z,27.64
2022-08-17T12:36:33.064Z,27.67
2022-08-17T12:38:38.901Z,27.76
2022-08-17T12:40:54.902Z,27.47
2022-08-17T12:43:05.069Z,27.66
2022-08-17T12:45:22.770Z,27.59
2022-08-17T12:47:29.487Z,27.45
2022-08-17T12:49:36.003Z,27.71
2022-08-17T12:51:44.227Z,27.69
2022-08-17T12:53:55.430Z,28.07
2022-08-17T12:56:00.625Z,28.18
2022-08-17T12:58:07.382Z,28.47
2022-08-17T13:00:17.686Z,28.78
2022-08-17T13:02:40.111Z,28.79
2022-08-17T13:04:44.135Z,28.76
2022-08-17T13:06:51.198Z,28.64
2022-08-17T13:09:11.484Z,28.75
2022-08-17T13:11:20.664Z,28.94
2022-08-17T13:13:27.868Z,28.66
2022-08-17T13:15:36.840Z,29.06
2022-08-17T13:17:40.418Z,29.18
2022-08-17T13:19:50.503Z,28.93
2022-08-17T13:21:56.724Z,28.88
2022-08-17T13:24:02.321Z,28.87
2022-08-17T13:26:09.382Z,28.99
2022-08-17T13:28:18.879Z,29.15
2022-08-17T13:30:40.662Z,28.55
2022-08-17T13:32:47.127Z,27.90
2022-08-17T13:35:12.198Z,27.63
2022-08-17T13:37:32.678Z,27.70
2022-08-17T13:39:42.656Z,27.98
2022-08-17T13:41:48.015Z,27.95
2022-08-17T13:43:51.417Z,28.12
2022-08-17T13:46:09.705Z,28.21
2022-08-17T13:48:23.580Z,28.35
2022-08-17T13:50:27.131Z,28.28
2022-08-17T13:52:38.887Z,28.55
2022-08-17T13:54:42.514Z,28.70
2022-08-17T13:56:57.597Z,28.55
2022-08-17T13:59:04.598Z,28.41
2022-08-17T14:01:31.989Z,28.59
2022-08-17T14:03:35.827Z,28.57
2022-08-17T14:05:40.478Z,28.65
2022-08-17T14:07:44.000Z,28.80
2022-08-17T14:09:51.066Z,28.72
2022-08-17T14:11:58.072Z,28.79
2022-08-17T14:14:01.587Z,28.80
2022-08-17T14:16:05.541Z,28.81
2022-08-17T14:18:10.480Z,28.72
2022-08-17T14:20:15.247Z,28.41
2022-08-17T14:22:23.713Z,28.05
2022-08-17T14:24:29.465Z,27.67
2022-08-17T14:26:33.146Z,27.27
2022-08-17T14:28:37.039Z,26.94
2022-08-17T14:30:46.530Z,27.06
2022-08-17T14:32:51.786Z,26.56
2022-08-17T14:34:57.732Z,26.63
2022-08-17T14:37:01.147Z,26.81
2022-08-17T14:39:05.277Z,26.90
2022-08-17T14:41:08.764Z,27.05
2022-08-17T14:43:12.738Z,27.22
2022-08-17T14:45:29.862Z,27.76
2022-08-17T14:47:38.550Z,27.89
2022-08-17T14:49:42.414Z,27.85
2022-08-17T14:51:47.722Z,27.94
2022-08-17T14:53:51.493Z,27.75
2022-08-17T14:55:54.904Z,27.69
2022-08-17T14:57:58.349Z,27.78
2022-08-17T15:00:02.771Z,27.79
2022-08-17T15:02:06.931Z,27.63
2022-08-17T15:04:18.559Z,27.59
2022-08-17T15:06:22.675Z,27.57
2022-08-17T15:08:28.281Z,27.62
2022-08-17T15:10:32.435Z,27.51
2022-08-17T15:12:36.592Z,27.81
2022-08-17T15:14:40.049Z,27.88
2022-08-17T15:16:43.501Z,27.77
2022-08-17T15:18:47.084Z,27.69
2022-08-17T15:20:50.799Z,27.55
2022-08-17T15:22:55.216Z,27.53
2022-08-17T15:25:06.593Z,27.62
2022-08-17T15:27:11.431Z,27.85
2022-08-17T15:29:15.559Z,27.84
2022-08-17T15:31:19.412Z,28.21
2022-08-17T15:33:35.709Z,28.87
2022-08-17T15:35:39.134Z,29.05
2022-08-17T15:37:42.616Z,29.23
2022-08-17T15:39:46.123Z,29.42
2022-08-17T15:41:58.781Z,29.60
2022-08-17T15:44:02.615Z,29.77
2022-08-17T15:46:10.808Z,29.92
2022-08-17T15:48:14.672Z,29.26
2022-08-17T15:50:18.314Z,29.29
2022-08-17T15:52:24.618Z,29.23
2022-08-17T15:54:31.620Z,29.60
2022-08-17T15:56:38.227Z,29.42
2022-08-17T15:58:44.222Z,29.48
2022-08-17T16:00:53.317Z,29.56
2022-08-17T16:03:46.861Z,29.57
2022-08-17T16:05:36.128Z,29.54
2022-08-17T16:07:40.861Z,29.38
2022-08-17T16:09:44.567Z,29.23
2022-08-17T16:11:51.952Z,29.34
2022-08-17T16:14:00.288Z,29.27
2022-08-17T16:16:04.365Z,29.18
2022-08-17T16:18:07.796Z,29.26
2022-08-17T16:20:19.662Z,29.35
2022-08-17T16:22:32.507Z,29.15
2022-08-17T16:24:37.121Z,29.31
2022-08-17T16:26:40.531Z,29.42
2022-08-17T16:28:44.051Z,29.37
2022-08-17T16:30:48.882Z,29.40
2022-08-17T16:32:53.556Z,29.46
2022-08-17T16:34:57.059Z,29.30
2022-08-17T16:37:00.516Z,29.32
2022-08-17T16:39:04.720Z,29.30
2022-08-17T16:41:08.160Z,29.03
2022-08-17T16:43:12.098Z,29.01
2022-08-17T16:45:19.250Z,28.80
2022-08-17T16:47:25.087Z,28.55
2022-08-17T16:49:36.238Z,28.56
2022-08-17T16:51:41.430Z,28.51
2022-08-17T16:53:44.884Z,28.66
2022-08-17T16:55:58.449Z,28.85
2022-08-17T16:58:02.414Z,29.12
2022-08-17T17:00:07.473Z,29.34
2022-08-17T17:02:11.730Z,29.22
2022-08-17T17:04:19.495Z,29.30
2022-08-17T17:06:37.359Z,29.40
2022-08-17T17:08:46.683Z,29.52
2022-08-17T17:10:52.642Z,29.49
2022-08-17T17:13:02.530Z,29.55
2022-08-17T17:15:09.180Z,29.50
2022-08-17T17:17:26.190Z,29.32
2022-08-17T17:19:39.065Z,29.23
2022-08-17T17:21:51.741Z,29.15
2022-08-17T17:23:59.792Z,29.05
2022-08-17T17:26:12.662Z,29.17
2022-08-17T17:28:31.189Z,29.20
2022-08-17T17:30:53.785Z,29.12
2022-08-17T17:33:02.868Z,29.09
2022-08-17T17:35:12.070Z,29.02
2022-08-17T17:37:23.738Z,29.04
2022-08-17T17:39:36.284Z,29.03
2022-08-17T17:41:47.141Z,29.01
2022-08-17T17:43:53.986Z,28.99
2022-08-17T17:46:28.085Z,28.91
2022-08-17T17:48:24.744Z,28.78
2022-08-17T17:50:36.264Z,28.62
2022-08-17T17:52:48.073Z,28.55
2022-08-17T17:55:05.286Z,28.32
2022-08-17T17:57:17.622Z,28.19
2022-08-17T17:59:28.681Z,28.01
2022-08-17T18:01:45.828Z,27.76
2022-08-17T18:04:04.712Z,27.61
2022-08-17T18:06:31.632Z,27.46
2022-08-17T18:08:47.780Z,27.50
2022-08-17T18:11:06.234Z,27.53
2022-08-17T18:13:17.983Z,27.48
2022-08-17T18:15:29.490Z,27.35
2022-08-17T18:17:33.435Z,27.26
2022-08-17T18:19:38.865Z,27.22
2022-08-17T18:21:48.412Z,27.13
2022-08-17T18:23:57.288Z,26.94
2022-08-17T18:26:02.326Z,26.92
2022-08-17T18:28:05.939Z,26.96
2022-08-17T18:30:27.027Z,26.95
2022-08-17T18:32:39.080Z,26.89
2022-08-17T18:34:49.935Z,26.82
2022-08-17T18:36:54.751Z,26.79
2022-08-17T18:39:15.549Z,26.69
2022-08-17T18:41:23.651Z,26.62
2022-08-17T18:43:44.202Z,26.56
2022-08-17T18:45:55.247Z,26.61
2022-08-17T18:47:58.940Z,26.57
2022-08-17T18:50:25.483Z,26.53
2022-08-17T18:52:32.548Z,26.41
2022-08-17T18:54:37.322Z,26.32
2022-08-17T18:56:44.069Z,26.27
2022-08-17T18:58:53.122Z,26.34
2022-08-17T19:01:00.257Z,26.27
2022-08-17T19:03:06.449Z,26.18
2022-08-17T19:05:29.923Z,26.24
2022-08-17T19:07:38.108Z,26.19
2022-08-17T19:09:45.130Z,26.21
2022-08-17T19:11:48.646Z,26.18
2022-08-17T19:13:57.758Z,26.16
2022-08-17T19:16:11.674Z,26.18
2022-08-17T19:18:22.701Z,26.15
2022-08-17T19:20:31.913Z,26.10
2022-08-17T19:22:50.146Z,26.08
2022-08-17T19:25:02.764Z,26.10
2022-08-17T19:27:15.120Z,26.10
2022-08-17T19:29:25.762Z,26.07
2022-08-17T19:31:31.898Z,26.12
2022-08-17T19:33:37.452Z,25.96
2022-08-17T19:35:50.278Z,25.96
2022-08-17T19:38:03.805Z,25.94
2022-08-17T19:40:41.692Z,26.02
2022-08-17T19:42:53.661Z,26.02
2022-08-17T19:45:03.227Z,26.00
2022-08-17T19:47:30.463Z,26.03
2022-08-17T19:49:50.619Z,26.02
2022-08-17T19:51:59.231Z,26.03
2022-08-17T19:54:14.118Z,26.00
2022-08-17T19:56:24.037Z,25.92
2022-08-17T19:58:48.646Z,25.87
2022-08-17T20:00:56.068Z,25.83
2022-08-17T20:03:06.209Z,25.74
2022-08-17T20:05:16.613Z,25.65
2022-08-17T20:07:23.304Z,25.60
2022-08-17T20:09:35.498Z,25.49
2022-08-17T20:11:43.053Z,25.44
2022-08-17T20:13:53.230Z,25.32
2022-08-17T20:15:56.673Z,25.19
2022-08-17T20:18:02.171Z,25.14
2022-08-17T20:20:20.689Z,25.15
2022-08-17T20:22:31.761Z,25.22
2022-08-17T20:25:02.700Z,25.19
2022-08-17T20:27:16.254Z,25.23
2022-08-17T20:29:39.464Z,25.21
2022-08-17T20:31:48.875Z,25.12
2022-08-17T20:33:52.270Z,25.15
2022-08-17T20:36:17.069Z,25.24
2022-08-17T20:38:40.590Z,25.24
2022-08-17T20:41:13.210Z,25.26
2022-08-17T20:43:51.742Z,25.22
2022-08-17T20:46:22.058Z,25.18
2022-08-17T20:48:38.284Z,25.12
2022-08-17T20:50:48.169Z,25.06
2022-08-17T20:52:54.146Z,25.05
2022-08-17T20:54:58.229Z,24.94
2022-08-17T20:57:06.128Z,24.89
2022-08-17T20:59:55.177Z,24.93
2022-08-17T21:02:18.295Z,24.87
2022-08-17T21:04:44.838Z,24.86
2022-08-17T21:07:29.044Z,25.03
2022-08-17T21:09:32.580Z,25.14
2022-08-17T21:12:03.948Z,25.21
2022-08-17T21:14:20.507Z,25.12
2022-08-17T21:16:34.320Z,24.98
2022-08-17T21:18:51.512Z,24.89
2022-08-17T21:21:06.609Z,24.86
2022-08-17T21:23:30.600Z,24.86
2022-08-17T21:25:52.817Z,24.82
2022-08-17T21:28:08.249Z,24.57
2022-08-17T21:30:24.591Z,24.83
2022-08-17T21:32:31.311Z,24.76
2022-08-17T21:34:36.998Z,24.67
2022-08-17T21:36:40.523Z,24.71
2022-08-17T21:38:57.698Z,24.70
2022-08-17T21:41:02.281Z,24.64
2022-08-17T21:43:23.579Z,24.54
2022-08-17T21:45:35.044Z,24.55
2022-08-17T21:47:47.487Z,24.55
2022-08-17T21:49:50.983Z,24.54
2022-08-17T21:51:56.869Z,24.38
2022-08-17T21:54:03.877Z,24.32
2022-08-17T21:56:09.060Z,24.40
2022-08-17T21:58:29.842Z,24.31
2022-08-17T22:00:34.646Z,24.25
2022-08-17T22:02:42.684Z,24.23
2022-08-17T22:04:57.631Z,24.01
2022-08-17T22:07:03.469Z,23.85
2022-08-17T22:09:14.288Z,23.81
2022-08-17T22:11:18.513Z,23.80
2022-08-17T22:13:24.104Z,23.74
2022-08-17T22:15:39.801Z,23.67
2022-08-17T22:17:47.570Z,23.70
2022-08-17T22:19:53.208Z,23.63
2022-08-17T22:22:04.153Z,23.54
2022-08-17T22:24:17.974Z,23.43
2022-08-17T22:26:23.594Z,23.41
2022-08-17T22:28:39.578Z,23.42
2022-08-17T22:30:59.531Z,23.47
2022-08-17T22:33:29.696Z,23.39
2022-08-17T22:35:43.974Z,23.50
2022-08-17T22:37:47.875Z,23.24
2022-08-17T22:39:58.726Z,23.05
2022-08-17T22:42:02.488Z,22.79
2022-08-17T22:44:28.211Z,22.84
2022-08-17T22:46:48.668Z,23.01
2022-08-17T22:48:57.613Z,23.05
2022-08-17T22:51:12.578Z,23.01
2022-08-17T22:53:48.717Z,23.08
2022-08-17T22:56:15.457Z,23.02
2022-08-17T22:58:40.635Z,23.03
2022-08-17T23:00:46.411Z,22.95
2022-08-17T23:03:09.588Z,22.69
2022-08-17T23:05:21.551Z,22.61
2022-08-17T23:07:25.082Z,22.54
2022-08-17T23:09:29.875Z,22.63
2022-08-17T23:11:49.307Z,22.66
2022-08-17T23:13:54.945Z,22.55
2022-08-17T23:15:58.379Z,22.60
2022-08-17T23:18:04.570Z,22.65
2022-08-17T23:20:13.077Z,22.76
2022-08-17T23:22:16.605Z,22.73
2022-08-17T23:24:23.796Z,22.76
2022-08-17T23:26:27.650Z,22.75
2022-08-17T23:28:31.132Z,22.79
2022-08-17T23:30:39.326Z,22.66
2022-08-17T23:32:53.322Z,22.76
2022-08-17T23:34:59.155Z,22.83
2022-08-17T23:37:04.448Z,22.87
2022-08-17T23:39:08.726Z,22.92
2022-08-17T23:41:16.330Z,22.84
2022-08-17T23:43:25.426Z,22.79
2022-08-17T23:45:30.913Z,22.79
2022-08-17T23:47:34.762Z,22.72
2022-08-17T23:49:41.312Z,22.64
2022-08-17T23:51:45.735Z,22.59
2022-08-17T23:53:55.464Z,22.63
2022-08-17T23:56:09.605Z,22.74
2022-08-17T23:58:14.364Z,22.67
